sensor_id;sensor_type;location;lat;lon;timestamp;pressure;altitude;pressure_sealevel;temperature;humidity
61786;BME280;47692;53.714;11.372;2024-03-23T00:55:49;100217.19;;;5.60;100.00
61786;BME280;47692;53.714;11.372;2024-03-23T00:58:14;100224.97;;;5.60;100.00
61786;BME280;47692;53.714;11.372;2024-03-23T01:00:39;100222.44;;;5.54;100.00
61786;BME280;47692;53.714;11.372;2024-03-23T01:03:04;100218.06;;;5.56;100.00
61786;BME280;47692;53.714;11.372;2024-03-23T01:05:30;100212.94;;;5.53;100.00
61786;BME280;47692;53.714;11.372;2024-03-23T01:07:55;100210.31;;;5.56;100.00
61786;BME280;47692;53.714;11.372;2024-03-23T01:10:21;100188.75;;;5.55;100.00
61786;BME280;47692;53.714;11.372;2024-03-23T01:12:46;100189.63;;;5.53;100.00
61786;BME280;47692;53.714;11.372;2024-03-23T01:15:11;100188.81;;;5.49;100.00
61786;BME280;47692;53.714;11.372;2024-03-23T01:17:37;100186.19;;;5.50;100.00
61786;BME280;47692;53.714;11.372;2024-03-23T01:20:02;100181.06;;;5.44;100.00
61786;BME280;47692;53.714;11.372;2024-03-23T01:22:28;100177.59;;;5.48;100.00
61786;BME280;47692;53.714;11.372;2024-03-23T01:24:53;100177.59;;;5.48;100.00
61786;BME280;47692;53.714;11.372;2024-03-23T01:27:18;100181.06;;;5.44;100.00
61786;BME280;47692;53.714;11.372;2024-03-23T01:29:44;100177.66;;;5.42;100.00
61786;BME280;47692;53.714;11.372;2024-03-23T01:32:09;100175.97;;;5.38;100.00
61786;BME280;47692;53.714;11.372;2024-03-23T01:34:34;100181.13;;;5.41;100.00
61786;BME280;47692;53.714;11.372;2024-03-23T01:37:00;100176.84;;;5.37;100.00
61786;BME280;47692;53.714;11.372;2024-03-23T01:39:25;100163.88;;;5.39;100.00
61786;BME280;47692;53.714;11.372;2024-03-23T01:41:50;100153.56;;;5.34;100.00
61786;BME280;47692;53.714;11.372;2024-03-23T01:44:16;100157.91;;;5.32;100.00
61786;BME280;47692;53.714;11.372;2024-03-23T01:46:42;100162.25;;;5.30;100.00
61786;BME280;47692;53.714;11.372;2024-03-23T01:49:08;100145.00;;;5.29;100.00
61786;BME280;47692;53.714;11.372;2024-03-23T01:51:35;100153.63;;;5.28;100.00
61786;BME280;47692;53.714;11.372;2024-03-23T01:54:04;100145.03;;;5.26;100.00
61786;BME280;47692;53.714;11.372;2024-03-23T01:56:34;100146.78;;;5.24;100.00
61786;BME280;47692;53.714;11.372;2024-03-23T01:59:01;100142.53;;;5.16;100.00
61786;BME280;47692;53.714;11.372;2024-03-23T02:01:26;100134.78;;;5.15;100.00
61786;BME280;47692;53.714;11.372;2024-03-23T02:03:52;100136.50;;;5.14;100.00
61786;BME280;47692;53.714;11.372;2024-03-23T02:06:17;100129.59;;;5.16;100.00
61786;BME280;47692;53.714;11.372;2024-03-23T02:08:43;100129.63;;;5.15;100.00
61786;BME280;47692;53.714;11.372;2024-03-23T02:11:09;100117.56;;;5.11;100.00
61786;BME280;47692;53.714;11.372;2024-03-23T02:13:34;100108.88;;;5.16;100.00
61786;BME280;47692;53.714;11.372;2024-03-23T02:15:59;100113.25;;;5.11;100.00
61786;BME280;47692;53.714;11.372;2024-03-23T02:18:25;100109.00;;;5.04;100.00
61786;BME280;47692;53.714;11.372;2024-03-23T02:20:50;100117.63;;;5.06;100.00
61786;BME280;47692;53.714;11.372;2024-03-23T02:23:16;100109.03;;;5.03;100.00
61786;BME280;47692;53.714;11.372;2024-03-23T02:25:43;100098.72;;;4.98;100.00
61786;BME280;47692;53.714;11.372;2024-03-23T02:28:08;100089.22;;;5.00;100.00
61786;BME280;47692;53.714;11.372;2024-03-23T02:30:34;100090.94;;;5.01;100.00
61786;BME280;47692;53.714;11.372;2024-03-23T02:32:59;100103.91;;;4.98;100.00
61786;BME280;47692;53.714;11.372;2024-03-23T02:35:25;100099.63;;;4.95;100.00
61786;BME280;47692;53.714;11.372;2024-03-23T02:37:50;100091.88;;;4.91;100.00
61786;BME280;47692;53.714;11.372;2024-03-23T02:40:16;100083.25;;;4.92;100.00
61786;BME280;47692;53.714;11.372;2024-03-23T02:42:42;100088.44;;;4.92;100.00
61786;BME280;47692;53.714;11.372;2024-03-23T02:45:07;100090.16;;;4.90;100.00
61786;BME280;47692;53.714;11.372;2024-03-23T02:47:33;100084.94;;;4.96;100.00
61786;BME280;47692;53.714;11.372;2024-03-23T02:49:58;100079.88;;;4.87;100.00
61786;BME280;47692;53.714;11.372;2024-03-23T02:52:24;100083.31;;;4.85;100.00
61786;BME280;47692;53.714;11.372;2024-03-23T02:54:49;100079.81;;;4.90;100.00
61786;BME280;47692;53.714;11.372;2024-03-23T02:57:14;100081.59;;;4.84;100.00
61786;BME280;47692;53.714;11.372;2024-03-23T02:59:40;100067.78;;;4.85;100.00
61786;BME280;47692;53.714;11.372;2024-03-23T03:02:06;100073.88;;;4.83;100.00
61786;BME280;47692;53.714;11.372;2024-03-23T03:04:32;100070.44;;;4.82;100.00
61786;BME280;47692;53.714;11.372;2024-03-23T03:06:57;100057.44;;;4.85;100.00
61786;BME280;47692;53.714;11.372;2024-03-23T03:09:22;100061.78;;;4.83;100.00
61786;BME280;47692;53.714;11.372;2024-03-23T03:11:48;100068.69;;;4.80;100.00
61786;BME280;47692;53.714;11.372;2024-03-23T03:14:13;100062.69;;;4.79;100.00
61786;BME280;47692;53.714;11.372;2024-03-23T03:16:38;100052.38;;;4.76;100.00
61786;BME280;47692;53.714;11.372;2024-03-23T03:19:04;100051.56;;;4.73;100.00
61786;BME280;47692;53.714;11.372;2024-03-23T03:21:29;100043.78;;;4.74;100.00
61786;BME280;47692;53.714;11.372;2024-03-23T03:23:55;100057.56;;;4.76;100.00
61786;BME280;47692;53.714;11.372;2024-03-23T03:26:22;100048.91;;;4.77;100.00
61786;BME280;47692;53.714;11.372;2024-03-23T03:28:47;100056.69;;;4.76;100.00
61786;BME280;47692;53.714;11.372;2024-03-23T03:31:17;100060.19;;;4.72;100.00
61786;BME280;47692;53.714;11.372;2024-03-23T03:33:44;100052.41;;;4.73;100.00
61786;BME280;47692;53.714;11.372;2024-03-23T03:36:10;100062.78;;;4.68;100.00
61786;BME280;47692;53.714;11.372;2024-03-23T03:38:35;100057.66;;;4.64;100.00
61786;BME280;47692;53.714;11.372;2024-03-23T03:41:01;100051.66;;;4.59;100.00
61786;BME280;47692;53.714;11.372;2024-03-23T03:43:27;100049.13;;;4.56;100.00
61786;BME280;47692;53.714;11.372;2024-03-23T03:45:53;100042.22;;;4.58;100.00
61786;BME280;47692;53.714;11.372;2024-03-23T03:48:19;100042.22;;;4.55;100.00
61786;BME280;47692;53.714;11.372;2024-03-23T03:50:44;100028.44;;;4.56;100.00
61786;BME280;47692;53.714;11.372;2024-03-23T03:53:09;100022.38;;;4.57;100.00
61786;BME280;47692;53.714;11.372;2024-03-23T03:55:35;100021.59;;;4.48;100.00
61786;BME280;47692;53.714;11.372;2024-03-23T03:58:00;100025.03;;;4.47;100.00
61786;BME280;47692;53.714;11.372;2024-03-23T04:00:25;100023.31;;;4.49;100.00
61786;BME280;47692;53.714;11.372;2024-03-23T04:02:51;100019.91;;;4.44;100.00
61786;BME280;47692;53.714;11.372;2024-03-23T04:05:16;100025.13;;;4.38;100.00
61786;BME280;47692;53.714;11.372;2024-03-23T04:07:42;100015.69;;;4.34;100.00
61786;BME280;47692;53.714;11.372;2024-03-23T04:10:07;100011.34;;;4.36;100.00
61786;BME280;47692;53.714;11.372;2024-03-23T04:12:36;100001.88;;;4.38;100.00
61786;BME280;47692;53.714;11.372;2024-03-23T04:15:02;100009.63;;;4.38;100.00
61786;BME280;47692;53.714;11.372;2024-03-23T04:17:29;100008.78;;;4.34;100.00
61786;BME280;47692;53.714;11.372;2024-03-23T04:19:57;100004.50;;;4.33;100.00
61786;BME280;47692;53.714;11.372;2024-03-23T04:22:23;100005.38;;;4.34;100.00
61786;BME280;47692;53.714;11.372;2024-03-23T04:24:52;100002.78;;;4.34;100.00
61786;BME280;47692;53.714;11.372;2024-03-23T04:27:18;100007.00;;;4.44;100.00
61786;BME280;47692;53.714;11.372;2024-03-23T04:29:47;100009.53;;;4.47;100.00
61786;BME280;47692;53.714;11.372;2024-03-23T04:32:13;99998.47;;;4.34;100.00
61786;BME280;47692;53.714;11.372;2024-03-23T04:34:39;100001.84;;;4.40;100.00
61786;BME280;47692;53.714;11.372;2024-03-23T04:37:04;100000.13;;;4.39;100.00
61786;BME280;47692;53.714;11.372;2024-03-23T04:39:30;99997.63;;;4.31;100.00
61786;BME280;47692;53.714;11.372;2024-03-23T04:41:55;99983.81;;;4.33;100.00
61786;BME280;47692;53.714;11.372;2024-03-23T04:44:20;99989.00;;;4.29;100.00
61786;BME280;47692;53.714;11.372;2024-03-23T04:46:46;99992.50;;;4.28;100.00
61786;BME280;47692;53.714;11.372;2024-03-23T04:49:11;99989.88;;;4.31;100.00
61786;BME280;47692;53.714;11.372;2024-03-23T04:51:37;99979.56;;;4.28;100.00
61786;BME280;47692;53.714;11.372;2024-03-23T04:54:06;99986.44;;;4.27;100.00
61786;BME280;47692;53.714;11.372;2024-03-23T04:56:32;99980.44;;;4.24;100.00
61786;BME280;47692;53.714;11.372;2024-03-23T04:58:58;99986.50;;;4.24;100.00
61786;BME280;47692;53.714;11.372;2024-03-23T05:01:27;99980.44;;;4.27;100.00
61786;BME280;47692;53.714;11.372;2024-03-23T05:03:52;99984.78;;;4.23;100.00
61786;BME280;47692;53.714;11.372;2024-03-23T05:06:18;99988.25;;;4.20;100.00
61786;BME280;47692;53.714;11.372;2024-03-23T05:08:43;99995.97;;;4.22;100.00
61786;BME280;47692;53.714;11.372;2024-03-23T05:11:09;99990.84;;;4.19;100.00
61786;BME280;47692;53.714;11.372;2024-03-23T05:13:34;99982.16;;;4.28;100.00
61786;BME280;47692;53.714;11.372;2024-03-23T05:15:59;99980.44;;;4.27;100.00
61786;BME280;47692;53.714;11.372;2024-03-23T05:18:25;99983.88;;;4.26;100.00
61786;BME280;47692;53.714;11.372;2024-03-23T05:20:58;99982.16;;;4.25;100.00
61786;BME280;47692;53.714;11.372;2024-03-23T05:23:24;99987.38;;;4.22;100.00
61786;BME280;47692;53.714;11.372;2024-03-23T05:25:50;99979.66;;;4.14;100.00
61786;BME280;47692;53.714;11.372;2024-03-23T05:28:16;99982.22;;;4.18;100.00
61786;BME280;47692;53.714;11.372;2024-03-23T05:30:42;99981.34;;;4.19;100.00
61786;BME280;47692;53.714;11.372;2024-03-23T05:33:07;99982.16;;;4.25;100.00
61786;BME280;47692;53.714;11.372;2024-03-23T05:35:33;99980.50;;;4.17;100.00
61786;BME280;47692;53.714;11.372;2024-03-23T05:37:58;99976.16;;;4.21;100.00
61786;BME280;47692;53.714;11.372;2024-03-23T05:40:25;99971.88;;;4.18;100.00
61786;BME280;47692;53.714;11.372;2024-03-23T05:42:50;99977.06;;;4.18;100.00
61786;BME280;47692;53.714;11.372;2024-03-23T05:45:18;99974.47;;;4.18;100.00
61786;BME280;47692;53.714;11.372;2024-03-23T05:47:44;99972.78;;;4.16;100.00
61786;BME280;47692;53.714;11.372;2024-03-23T05:50:10;99977.91;;;4.20;100.00
61786;BME280;47692;53.714;11.372;2024-03-23T05:52:38;99985.72;;;4.14;100.00
61786;BME280;47692;53.714;11.372;2024-03-23T05:55:04;99987.38;;;4.22;100.00
61786;BME280;47692;53.714;11.372;2024-03-23T05:57:29;99976.16;;;4.21;100.00
61786;BME280;47692;53.714;11.372;2024-03-23T05:59:55;99974.44;;;4.23;100.00
61786;BME280;47692;53.714;11.372;2024-03-23T06:02:20;99974.50;;;4.15;100.00
61786;BME280;47692;53.714;11.372;2024-03-23T06:04:46;99977.06;;;4.18;100.00
61786;BME280;47692;53.714;11.372;2024-03-23T06:07:11;99977.91;;;4.20;100.00
61786;BME280;47692;53.714;11.372;2024-03-23T06:09:39;99971.78;;;4.31;100.00
61786;BME280;47692;53.714;11.372;2024-03-23T06:12:05;99973.56;;;4.26;100.00
61786;BME280;47692;53.714;11.372;2024-03-23T06:14:30;99959.72;;;4.30;100.00
61786;BME280;47692;53.714;11.372;2024-03-23T06:16:55;99958.84;;;4.32;100.00
61786;BME280;47692;53.714;11.372;2024-03-23T06:19:21;99957.94;;;4.38;100.00
61786;BME280;47692;53.714;11.372;2024-03-23T06:21:46;99945.88;;;4.37;100.00
61786;BME280;47692;53.714;11.372;2024-03-23T06:24:12;99938.06;;;4.46;100.00
61786;BME280;47692;53.714;11.372;2024-03-23T06:26:38;99929.47;;;4.41;100.00
61786;BME280;47692;53.714;11.372;2024-03-23T06:29:03;99938.06;;;4.43;100.00
61786;BME280;47692;53.714;11.372;2024-03-23T06:31:30;99936.28;;;4.51;100.00
61786;BME280;47692;53.714;11.372;2024-03-23T06:33:55;99931.97;;;4.50;100.00
61786;BME280;47692;53.714;11.372;2024-03-23T06:36:20;99934.56;;;4.49;100.00
61786;BME280;47692;53.714;11.372;2024-03-23T06:38:46;99932.00;;;4.46;100.00
61786;BME280;47692;53.714;11.372;2024-03-23T06:41:11;99945.78;;;4.48;100.00
61786;BME280;47692;53.714;11.372;2024-03-23T06:43:36;99947.47;;;4.50;100.00
61786;BME280;47692;53.714;11.372;2024-03-23T06:46:03;99937.09;;;4.53;100.00
61786;BME280;47692;53.714;11.372;2024-03-23T06:48:29;99929.41;;;4.46;100.00
61786;BME280;47692;53.714;11.372;2024-03-23T06:50:57;99928.50;;;4.51;100.00
61786;BME280;47692;53.714;11.372;2024-03-23T06:53:23;99933.63;;;4.55;100.00
61786;BME280;47692;53.714;11.372;2024-03-23T06:55:52;99940.53;;;4.56;100.00
61786;BME280;47692;53.714;11.372;2024-03-23T06:58:23;99942.19;;;4.60;100.00
61786;BME280;47692;53.714;11.372;2024-03-23T07:00:48;99942.19;;;4.63;100.00
61786;BME280;47692;53.714;11.372;2024-03-23T07:03:14;99942.13;;;4.66;100.00
61786;BME280;47692;53.714;11.372;2024-03-23T07:05:40;99938.66;;;4.70;100.00
61786;BME280;47692;53.714;11.372;2024-03-23T07:08:05;99928.25;;;4.73;100.00
61786;BME280;47692;53.714;11.372;2024-03-23T07:10:31;99923.16;;;4.67;100.00
61786;BME280;47692;53.714;11.372;2024-03-23T07:12:56;99919.66;;;4.71;100.00
61786;BME280;47692;53.714;11.372;2024-03-23T07:15:21;99917.91;;;4.73;100.00
61786;BME280;47692;53.714;11.372;2024-03-23T07:17:47;99911.91;;;4.71;100.00
61786;BME280;47692;53.714;11.372;2024-03-23T07:20:13;99912.81;;;4.70;100.00
61786;BME280;47692;53.714;11.372;2024-03-23T07:22:38;99917.91;;;4.76;100.00
61786;BME280;47692;53.714;11.372;2024-03-23T07:25:05;99922.25;;;4.73;100.00
61786;BME280;47692;53.714;11.372;2024-03-23T07:27:30;99924.72;;;4.82;100.00
61786;BME280;47692;53.714;11.372;2024-03-23T07:29:55;99928.13;;;4.85;100.00
61786;BME280;47692;53.714;11.372;2024-03-23T07:32:21;99933.28;;;4.89;100.00
61786;BME280;47692;53.714;11.372;2024-03-23T07:34:46;99920.28;;;4.92;100.00
61786;BME280;47692;53.714;11.372;2024-03-23T07:37:12;99921.94;;;4.99;100.00
61786;BME280;47692;53.714;11.372;2024-03-23T07:39:37;99918.53;;;4.95;100.00
61786;BME280;47692;53.714;11.372;2024-03-23T07:42:02;99917.59;;;5.01;100.00
61786;BME280;47692;53.714;11.372;2024-03-23T07:44:28;99918.47;;;4.98;100.00
61786;BME280;47692;53.714;11.372;2024-03-23T07:46:53;99915.75;;;5.09;100.00
61786;BME280;47692;53.714;11.372;2024-03-23T07:49:19;99908.88;;;5.08;100.00
61786;BME280;47692;53.714;11.372;2024-03-23T07:51:44;99901.88;;;5.16;100.00
61786;BME280;47692;53.714;11.372;2024-03-23T07:54:10;99901.81;;;5.20;100.00
61786;BME280;47692;53.714;11.372;2024-03-23T07:56:35;99899.09;;;5.29;100.00
61786;BME280;47692;53.714;11.372;2024-03-23T07:59:00;99905.81;;;5.41;100.00
61786;BME280;47692;53.714;11.372;2024-03-23T08:01:28;99901.38;;;5.50;100.00
61786;BME280;47692;53.714;11.372;2024-03-23T08:03:53;99902.88;;;5.67;100.00
61786;BME280;47692;53.714;11.372;2024-03-23T08:06:20;99894.09;;;5.74;100.00
61786;BME280;47692;53.714;11.372;2024-03-23T08:08:49;99893.00;;;5.91;100.00
61786;BME280;47692;53.714;11.372;2024-03-23T08:11:15;99892.03;;;5.95;100.00
61786;BME280;47692;53.714;11.372;2024-03-23T08:13:42;99890.22;;;6.02;100.00
61786;BME280;47692;53.714;11.372;2024-03-23T08:16:08;99896.34;;;5.96;100.00
61786;BME280;47692;53.714;11.372;2024-03-23T08:18:39;99893.72;;;5.99;100.00
61786;BME280;47692;53.714;11.372;2024-03-23T08:21:06;99883.38;;;5.99;100.00
61786;BME280;47692;53.714;11.372;2024-03-23T08:23:33;99886.81;;;5.98;100.00
61786;BME280;47692;53.714;11.372;2024-03-23T08:26:01;99878.97;;;6.03;100.00
61786;BME280;47692;53.714;11.372;2024-03-23T08:28:27;99874.72;;;6.00;100.00
61786;BME280;47692;53.714;11.372;2024-03-23T08:30:53;99874.69;;;6.03;100.00
61786;BME280;47692;53.714;11.372;2024-03-23T08:33:20;99874.59;;;6.06;100.00
61786;BME280;47692;53.714;11.372;2024-03-23T08:36:01;99870.34;;;6.04;100.00
61786;BME280;47692;53.714;11.372;2024-03-23T08:38:27;99862.53;;;6.07;100.00
61786;BME280;47692;53.714;11.372;2024-03-23T08:43:29;99862.25;;;6.21;100.00
61786;BME280;47692;53.714;11.372;2024-03-23T08:46:03;99864.03;;;6.19;100.00
61786;BME280;47692;53.714;11.372;2024-03-23T08:48:29;99862.25;;;6.21;100.00
61786;BME280;47692;53.714;11.372;2024-03-23T08:51:04;99860.38;;;6.29;100.00
61786;BME280;47692;53.714;11.372;2024-03-23T08:53:29;99854.25;;;6.33;100.00
61786;BME280;47692;53.714;11.372;2024-03-23T08:55:56;99853.25;;;6.40;100.00
61786;BME280;47692;53.714;11.372;2024-03-23T08:58:23;99858.38;;;6.43;99.80
61786;BME280;47692;53.714;11.372;2024-03-23T09:00:49;99852.19;;;6.51;99.59
61786;BME280;47692;53.714;11.372;2024-03-23T09:03:14;99858.00;;;6.62;98.59
61786;BME280;47692;53.714;11.372;2024-03-23T09:05:40;99849.09;;;6.75;97.62
61786;BME280;47692;53.714;11.372;2024-03-23T09:08:06;99859.22;;;6.88;97.06
61786;BME280;47692;53.714;11.372;2024-03-23T09:10:31;99852.09;;;6.96;96.22
61786;BME280;47692;53.714;11.372;2024-03-23T09:12:57;99844.97;;;7.07;96.14
61786;BME280;47692;53.714;11.372;2024-03-23T09:15:22;99854.16;;;7.21;95.21
61786;BME280;47692;53.714;11.372;2024-03-23T09:17:47;99851.66;;;7.18;92.40
61786;BME280;47692;53.714;11.372;2024-03-23T09:20:13;99857.63;;;7.20;91.93
61786;BME280;47692;53.714;11.372;2024-03-23T09:22:38;99860.97;;;7.26;91.25
61786;BME280;47692;53.714;11.372;2024-03-23T09:25:04;99853.22;;;7.25;89.86
61786;BME280;47692;53.714;11.372;2024-03-23T09:27:30;99846.16;;;7.30;89.25
61786;BME280;47692;53.714;11.372;2024-03-23T09:29:55;99849.22;;;7.48;88.40
61786;BME280;47692;53.714;11.372;2024-03-23T09:32:21;99850.09;;;7.47;87.44
61786;BME280;47692;53.714;11.372;2024-03-23T09:34:46;99843.72;;;7.60;86.92
61786;BME280;47692;53.714;11.372;2024-03-23T09:37:11;99835.78;;;7.66;86.11
61786;BME280;47692;53.714;11.372;2024-03-23T09:39:37;99835.06;;;7.61;85.37
61786;BME280;47692;53.714;11.372;2024-03-23T09:42:02;99832.47;;;7.59;85.45
61786;BME280;47692;53.714;11.372;2024-03-23T09:44:28;99830.06;;;7.52;85.05
61786;BME280;47692;53.714;11.372;2024-03-23T09:46:55;99829.22;;;7.51;84.82
61786;BME280;47692;53.714;11.372;2024-03-23T09:49:20;99841.53;;;7.43;85.07
61786;BME280;47692;53.714;11.372;2024-03-23T09:51:46;99839.81;;;7.42;85.37
61786;BME280;47692;53.714;11.372;2024-03-23T09:54:11;99832.16;;;7.37;85.04
61786;BME280;47692;53.714;11.372;2024-03-23T09:56:37;99830.56;;;7.32;83.38
61786;BME280;47692;53.714;11.372;2024-03-23T09:59:02;99820.72;;;7.44;83.42
61786;BME280;47692;53.714;11.372;2024-03-23T10:01:31;99825.31;;;7.69;85.49
61786;BME280;47692;53.714;11.372;2024-03-23T10:03:56;99818.53;;;7.98;85.32
61786;BME280;47692;53.714;11.372;2024-03-23T10:06:22;99816.00;;;8.28;84.12
61786;BME280;47692;53.714;11.372;2024-03-23T10:08:50;99813.50;;;8.55;79.43
61786;BME280;47692;53.714;11.372;2024-03-23T10:11:16;99810.50;;;8.69;75.97
61786;BME280;47692;53.714;11.372;2024-03-23T10:13:43;99804.28;;;8.75;74.73
61786;BME280;47692;53.714;11.372;2024-03-23T10:16:09;99809.38;;;8.78;71.55
61786;BME280;47692;53.714;11.372;2024-03-23T10:18:39;99800.84;;;8.72;70.45
61786;BME280;47692;53.714;11.372;2024-03-23T10:21:09;99807.34;;;8.59;70.82
61786;BME280;47692;53.714;11.372;2024-03-23T10:23:37;99813.63;;;8.52;71.41
61786;BME280;47692;53.714;11.372;2024-03-23T10:26:12;99807.38;;;8.26;71.00
61786;BME280;47692;53.714;11.372;2024-03-23T10:28:50;99805.81;;;8.19;72.02
61786;BME280;47692;53.714;11.372;2024-03-23T10:31:16;99806.00;;;8.13;72.91
61786;BME280;47692;53.714;11.372;2024-03-23T10:33:48;99799.19;;;8.08;72.54
61786;BME280;47692;53.714;11.372;2024-03-23T10:36:13;99799.41;;;8.01;72.53
61786;BME280;47692;53.714;11.372;2024-03-23T10:38:40;99789.19;;;7.93;73.40
61786;BME280;47692;53.714;11.372;2024-03-23T10:41:08;99787.34;;;7.98;73.95
61786;BME280;47692;53.714;11.372;2024-03-23T10:43:34;99777.16;;;8.20;73.40
61786;BME280;47692;53.714;11.372;2024-03-23T10:45:59;99779.13;;;8.44;71.11
61786;BME280;47692;53.714;11.372;2024-03-23T10:48:25;99769.09;;;8.61;70.18
61786;BME280;47692;53.714;11.372;2024-03-23T10:50:50;99761.63;;;8.80;69.02
61786;BME280;47692;53.714;11.372;2024-03-23T10:53:16;99761.88;;;8.99;66.38
61786;BME280;47692;53.714;11.372;2024-03-23T10:55:43;99758.19;;;9.07;65.14
61786;BME280;47692;53.714;11.372;2024-03-23T10:58:10;99770.16;;;8.84;67.60
61786;BME280;47692;53.714;11.372;2024-03-23T11:00:38;99782.91;;;8.33;71.06
61786;BME280;47692;53.714;11.372;2024-03-23T11:03:32;99783.41;;;7.83;73.79
61786;BME280;47692;53.714;11.372;2024-03-23T11:06:02;99769.94;;;7.67;76.40
61786;BME280;47692;53.714;11.372;2024-03-23T11:08:38;99766.69;;;7.59;77.45
61786;BME280;47692;53.714;11.372;2024-03-23T11:11:20;99761.78;;;7.81;79.90
61786;BME280;47692;53.714;11.372;2024-03-23T11:13:50;99760.31;;;8.04;81.08
61786;BME280;47692;53.714;11.372;2024-03-23T11:16:21;99756.88;;;8.33;80.21
61786;BME280;47692;53.714;11.372;2024-03-23T11:18:47;99754.56;;;8.54;78.17
61786;BME280;47692;53.714;11.372;2024-03-23T11:24:16;99743.88;;;9.20;75.26
61786;BME280;47692;53.714;11.372;2024-03-23T11:26:41;99768.78;;;9.27;73.35
61786;BME280;47692;53.714;11.372;2024-03-23T11:29:14;99748.53;;;9.10;69.23
61786;BME280;47692;53.714;11.372;2024-03-23T11:31:51;99746.91;;;8.78;67.62
61786;BME280;47692;53.714;11.372;2024-03-23T11:34:17;99749.38;;;8.54;66.85
61786;BME280;47692;53.714;11.372;2024-03-23T11:36:43;99742.06;;;8.35;66.97
61786;BME280;47692;53.714;11.372;2024-03-23T11:39:16;99746.50;;;8.33;68.12
61786;BME280;47692;53.714;11.372;2024-03-23T11:41:56;99748.66;;;8.49;71.01
61786;BME280;47692;53.714;11.372;2024-03-23T11:44:26;99744.31;;;8.78;72.28
61786;BME280;47692;53.714;11.372;2024-03-23T11:46:52;99736.34;;;9.11;71.30
61786;BME280;47692;53.714;11.372;2024-03-23T11:49:25;99738.28;;;9.31;71.18
61786;BME280;47692;53.714;11.372;2024-03-23T11:51:51;99733.13;;;9.56;69.51
61786;BME280;47692;53.714;11.372;2024-03-23T11:54:23;99741.47;;;9.91;69.63
61786;BME280;47692;53.714;11.372;2024-03-23T11:56:59;99725.69;;;9.94;66.08
61786;BME280;47692;53.714;11.372;2024-03-23T11:59:35;99721.22;;;9.98;65.67
61786;BME280;47692;53.714;11.372;2024-03-23T12:02:06;99715.84;;;10.02;65.22
61786;BME280;47692;53.714;11.372;2024-03-23T12:04:32;99718.53;;;9.76;65.11
61786;BME280;47692;53.714;11.372;2024-03-23T12:09:40;99719.31;;;9.27;66.92
61786;BME280;47692;53.714;11.372;2024-03-23T12:12:17;99719.50;;;9.21;67.48
61786;BME280;47692;53.714;11.372;2024-03-23T12:15:02;99722.47;;;8.83;67.75
61786;BME280;47692;53.714;11.372;2024-03-23T12:17:28;99720.63;;;8.87;66.22
61786;BME280;47692;53.714;11.372;2024-03-23T12:19:54;99718.56;;;8.97;63.67
61786;BME280;47692;53.714;11.372;2024-03-23T12:22:23;99727.19;;;9.26;63.13
61786;BME280;47692;53.714;11.372;2024-03-23T12:24:49;99731.63;;;9.49;63.47
61786;BME280;47692;53.714;11.372;2024-03-23T12:27:15;99730.56;;;9.54;63.50
61786;BME280;47692;53.714;11.372;2024-03-23T12:29:40;99729.44;;;9.36;63.43
61786;BME280;47692;53.714;11.372;2024-03-23T12:32:11;99736.56;;;9.31;63.78
61786;BME280;47692;53.714;11.372;2024-03-23T12:34:37;99739.75;;;9.40;63.85
61786;BME280;47692;53.714;11.372;2024-03-23T12:37:02;99728.94;;;9.25;64.46
61786;BME280;47692;53.714;11.372;2024-03-23T12:39:28;99732.03;;;9.10;66.60
61786;BME280;47692;53.714;11.372;2024-03-23T12:41:53;99735.91;;;8.98;67.13
61786;BME280;47692;53.714;11.372;2024-03-23T12:44:18;99731.34;;;9.04;66.85
61786;BME280;47692;53.714;11.372;2024-03-23T12:46:45;99733.66;;;9.14;66.46
61786;BME280;47692;53.714;11.372;2024-03-23T12:49:10;99736.47;;;9.08;67.02
61786;BME280;47692;53.714;11.372;2024-03-23T12:51:36;99737.44;;;8.77;66.53
61786;BME280;47692;53.714;11.372;2024-03-23T12:54:02;99733.19;;;8.72;67.23
61786;BME280;47692;53.714;11.372;2024-03-23T12:56:27;99729.94;;;8.36;68.07
61786;BME280;47692;53.714;11.372;2024-03-23T12:58:56;99736.25;;;8.27;68.68
61786;BME280;47692;53.714;11.372;2024-03-23T13:01:25;99741.00;;;8.13;68.27
61786;BME280;47692;53.714;11.372;2024-03-23T13:03:51;99740.88;;;7.86;67.55
61786;BME280;47692;53.714;11.372;2024-03-23T13:06:17;99741.66;;;7.89;68.25
61786;BME280;47692;53.714;11.372;2024-03-23T13:08:46;99739.78;;;7.95;67.84
61786;BME280;47692;53.714;11.372;2024-03-23T13:11:12;99745.41;;;7.78;67.94
61786;BME280;47692;53.714;11.372;2024-03-23T13:13:38;99746.78;;;7.58;68.02
61786;BME280;47692;53.714;11.372;2024-03-23T13:16:04;99755.53;;;7.55;69.11
61786;BME280;47692;53.714;11.372;2024-03-23T13:18:31;99766.88;;;7.51;69.23
61786;BME280;47692;53.714;11.372;2024-03-23T13:20:57;99768.03;;;7.39;69.90
61786;BME280;47692;53.714;11.372;2024-03-23T13:23:22;99785.28;;;7.43;71.71
61786;BME280;47692;53.714;11.372;2024-03-23T13:25:55;99769.00;;;7.35;75.07
61786;BME280;47692;53.714;11.372;2024-03-23T13:28:21;99766.75;;;7.21;77.26
61786;BME280;47692;53.714;11.372;2024-03-23T13:30:54;99770.78;;;6.97;78.61
61786;BME280;47692;53.714;11.372;2024-03-23T13:33:19;99771.00;;;6.88;80.16
61786;BME280;47692;53.714;11.372;2024-03-23T13:35:55;99772.75;;;6.86;81.39
61786;BME280;47692;53.714;11.372;2024-03-23T13:38:21;99772.84;;;6.83;81.71
61786;BME280;47692;53.714;11.372;2024-03-23T13:40:54;99776.50;;;6.74;81.96
61786;BME280;47692;53.714;11.372;2024-03-23T13:43:20;99794.75;;;6.69;82.29
61786;BME280;47692;53.714;11.372;2024-03-23T13:45:52;99806.22;;;6.59;83.07
61786;BME280;47692;53.714;11.372;2024-03-23T13:48:23;99814.16;;;6.50;83.65
61786;BME280;47692;53.714;11.372;2024-03-23T13:51:04;99814.06;;;6.10;83.36